Time;durP1;ratioP1;P1;durP2;ratioP2;P2;SDS_P1;SDS_P2;PMS_P1;PMS_P2;Temp;Humidity;BMP_temperature;BMP_pressure;BME280_temperature;BME280_humidity;BME280_pressure;Samples;Min_cycle;Max_cycle;Signal;HPM_P1;HPM_P2
2023/06/16 03:56:47;;;;;;;;;;;;;;;;;;4994594;28;19981;-73
2023/06/16 03:59:14;;;;;;;;;;;;;;;;;;4994682;28;19926;-73
2023/06/16 04:01:41;;;;;;;;;;;;;;;;;;4994626;28;19933;-72
2023/06/16 04:04:09;;;;;;;;;;;;;;;;;;4994250;28;19957;-72
2023/06/16 04:06:40;;;;;;;;;;;;;;;;;;4994587;28;19926;-71
2023/06/16 04:09:08;;;;;;;;;;;;;;;;;;4994535;28;19926;-74
2023/06/16 04:11:40;;;;;;;;;;;;;;;;;;4994716;28;19926;-74
2023/06/16 04:14:09;;;;;;;;;;;;;;;;;;4998755;28;19958;-74
2023/06/16 04:16:37;;;;;;;;;;;;;;;;;;4999039;28;19926;-73
2023/06/16 04:19:06;;;;;;;;;;;;;;;;;;4995852;28;20025;-73
2023/06/16 04:21:33;;;;;;;;;;;;;;;;;;4994218;28;19933;-74
2023/06/16 04:24:00;;;;;;;;;;;;;;;;;;4994364;28;19933;-73
2023/06/16 04:26:28;;;;;;;;;;;;;;;;;;4994732;28;19926;-73
2023/06/16 04:28:55;;;;;;;;;;;;;;;;;;4994518;28;19932;-73
2023/06/16 04:31:22;;;;;;;;;;;;;;;;;;4994362;28;20004;-72
2023/06/16 04:33:49;;;;;;;;;;;;;;;;;;4994209;28;19926;-73
2023/06/16 04:36:17;;;;;;;;;;;;;;;;;;4993997;28;20405;-73
2023/06/16 04:38:44;;;;;;;;;;;;;;;;;;4994248;28;19926;-73
2023/06/16 04:41:11;;;;;;;;;;;;;;;;;;4994164;28;19926;-73
2023/06/16 04:43:38;;;;;;;;;;;;;;;;;;4994211;28;19949;-74
2023/06/16 04:46:05;;;;;;;;;;;;;;;;;;4994258;28;19926;-74
2023/06/16 04:48:31;;;;;;;;;;;;;;;;;;4993943;28;19933;-75
2023/06/16 04:50:58;;;;;;;;;;;;;;;;;;4995041;28;19925;-75
2023/06/16 04:53:26;;;;;;;;;;;;;;;;;;4996923;28;19933;-72
2023/06/16 04:55:53;;;;;;;;;;;;;;;;;;4997928;28;20016;-72
2023/06/16 04:58:20;;;;;;;;;;;;;;;;;;4997470;28;19933;-72
2023/06/16 05:00:47;;;;;;;;;;;;;;;;;;4997723;28;20444;-72
2023/06/16 05:03:14;;;;;;;;;;;;;;;;;;4998034;28;19961;-72
2023/06/16 05:05:41;;;;;;;;;;;;;;;;;;4997637;28;19929;-72
2023/06/16 05:08:08;;;;;;;;;;;;;;;;;;4997288;28;20341;-72
2023/06/16 05:10:35;;;;;;;;;;;;;;;;;;4997609;28;19931;-72
2023/06/16 05:13:02;;;;;;;;;;;;;;;;;;4997785;28;19925;-72
2023/06/16 05:15:29;;;;;;;;;;;;;;;;;;4997406;28;20293;-72
2023/06/16 05:17:56;;;;;;;;;;;;;;;;;;4997466;28;19926;-72
2023/06/16 05:20:23;;;;;;;;;;;;;;;;;;4997417;28;19925;-72
2023/06/16 05:22:50;;;;;;;;;;;;;;;;;;4997366;28;19926;-72
2023/06/16 05:25:16;;;;;;;;;;;;;;;;;;4996919;28;20373;-72
2023/06/16 05:27:43;;;;;;;;;;;;;;;;;;4997834;28;19934;-72
2023/06/16 05:30:10;;;;;;;;;;;;;;;;;;4997810;28;19926;-73
2023/06/16 05:32:37;;;;;;;;;;;;;;;;;;4997201;28;19925;-72
2023/06/16 05:35:04;;;;;;;;;;;;;;;;;;4997316;28;19932;-72
2023/06/16 05:37:31;;;;;;;;;;;;;;;;;;4997438;28;19929;-72
2023/06/16 05:39:58;;;;;;;;;;;;;;;;;;4997041;28;19933;-72
2023/06/16 05:42:25;;;;;;;;;;;;;;;;;;4997007;28;19933;-72
2023/06/16 05:44:52;;;;;;;;;;;;;;;;;;4997046;28;20340;-72
2023/06/16 05:47:19;;;;;;;;;;;;;;;;;;4997235;28;19933;-72
2023/06/16 05:49:46;;;;;;;;;;;;;;;;;;4997089;28;19969;-72
2023/06/16 05:52:13;;;;;;;;;;;;;;;;;;4997027;28;19926;-73
2023/06/16 05:54:40;;;;;;;;;;;;;;;;;;4996876;28;19925;-72
2023/06/16 05:57:07;;;;;;;;;;;;;;;;;;4996746;28;19972;-72
2023/06/16 05:59:34;;;;;;;;;;;;;;;;;;4996811;28;19965;-73
2023/06/16 06:02:00;;;;;;;;;;;;;;;;;;4996733;28;19937;-73
2023/06/16 06:04:27;;;;;;;;;;;;;;;;;;4996282;28;19925;-73
2023/06/16 06:06:54;;;;;;;;;;;;;;;;;;4996847;28;19933;-73
2023/06/16 06:09:21;;;;;;;;;;;;;;;;;;4996633;28;19936;-73
2023/06/16 06:11:48;;;;;;;;;;;;;;;;;;4997098;28;19949;-72
2023/06/16 06:14:15;;;;;;;;;;;;;;;;;;4996820;28;19933;-72
2023/06/16 06:16:42;;;;;;;;;;;;;;;;;;4996503;28;19925;-72
2023/06/16 06:19:09;;;;;;;;;;;;;;;;;;4996560;28;19926;-72
2023/06/16 06:21:36;;;;;;;;;;;;;;;;;;4996357;28;19926;-72
2023/06/16 06:24:03;;;;;;;;;;;;;;;;;;4996047;28;20393;-72
2023/06/16 06:26:30;;;;;;;;;;;;;;;;;;4996250;28;19926;-72
2023/06/16 06:28:56;;;;;;;;;;;;;;;;;;4996314;28;19926;-72
2023/06/16 06:31:23;;;;;;;;;;;;;;;;;;4996151;28;19933;-72
2023/06/16 06:33:50;;;;;;;;;;;;;;;;;;4996073;28;19925;-72
2023/06/16 06:36:17;;;;;;;;;;;;;;;;;;4996070;28;19926;-71
2023/06/16 06:38:44;;;;;;;;;;;;;;;;;;4995713;28;20305;-71
2023/06/16 06:41:11;;;;;;;;;;;;;;;;;;4995987;28;19936;-72
2023/06/16 06:43:38;;;;;;;;;;;;;;;;;;4995540;28;20424;-72
2023/06/16 06:46:05;;;;;;;;;;;;;;;;;;4996631;28;19925;-72
2023/06/16 06:48:32;;;;;;;;;;;;;;;;;;4995743;28;19937;-72
2023/06/16 06:50:59;;;;;;;;;;;;;;;;;;4995534;28;19977;-72
2023/06/16 06:53:25;;;;;;;;;;;;;;;;;;4995838;28;20025;-72
2023/06/16 06:55:52;;;;;;;;;;;;;;;;;;4995609;28;19925;-72
2023/06/16 06:58:19;;;;;;;;;;;;;;;;;;4995151;28;19948;-72
2023/06/16 07:00:46;;;;;;;;;;;;;;;;;;4995470;28;19926;-72
2023/06/16 07:03:13;;;;;;;;;;;;;;;;;;4995393;28;19948;-72
2023/06/16 07:05:40;;;;;;;;;;;;;;;;;;4995781;28;19925;-72
2023/06/16 07:08:07;;;;;;;;;;;;;;;;;;4995537;28;20293;-73
2023/06/16 07:10:36;;;;;;;;;;;;;;;;;;4995673;28;19926;-72
2023/06/16 07:13:06;;;;;;;;;;;;;;;;;;4995562;28;19934;-74
2023/06/16 07:15:33;;;;;;;;;;;;;;;;;;4994582;28;20024;-73
2023/06/16 07:18:00;;;;;;;;;;;;;;;;;;4995897;28;19933;-73
2023/06/16 07:20:27;;;;;;;;;;;;;;;;;;4995154;28;19933;-74
2023/06/16 07:22:53;;;;;;;;;;;;;;;;;;4995042;28;19933;-74
2023/06/16 07:25:20;;;;;;;;;;;;;;;;;;4995206;28;19930;-75
2023/06/16 07:27:47;;;;;;;;;;;;;;;;;;4994705;28;20404;-75
2023/06/16 07:30:14;;;;;;;;;;;;;;;;;;4995191;28;19925;-74
2023/06/16 07:32:41;;;;;;;;;;;;;;;;;;4995146;28;19933;-74
2023/06/16 07:35:08;;;;;;;;;;;;;;;;;;4995220;28;20278;-74
2023/06/16 07:37:35;;;;;;;;;;;;;;;;;;4995013;28;19965;-74
2023/06/16 07:40:03;;;;;;;;;;;;;;;;;;4995037;28;19926;-74
2023/06/16 07:42:30;;;;;;;;;;;;;;;;;;4995080;28;19932;-74
2023/06/16 07:44:57;;;;;;;;;;;;;;;;;;4994946;28;19932;-74
2023/06/16 07:47:24;;;;;;;;;;;;;;;;;;4994783;28;20299;-75
2023/06/16 07:49:50;;;;;;;;;;;;;;;;;;4994923;28;19932;-75
2023/06/16 07:52:17;;;;;;;;;;;;;;;;;;4994482;28;20381;-75
2023/06/16 07:54:45;;;;;;;;;;;;;;;;;;4994708;28;19973;-76
2023/06/16 07:57:13;;;;;;;;;;;32.20;33.80;;;;;;4994659;28;19937;-76
2023/06/16 07:59:40;;;;;;;;;;;;;;;;;;4994668;28;19930;-76
2023/06/16 08:02:07;;;;;;;;;;;31.60;30.80;;;;;;4994404;28;20377;-76
2023/06/16 08:04:34;;;;;;;;;;;;;;;;;;4995189;28;19925;-76
2023/06/16 08:07:01;;;;;;;;;;;;;;;;;;4995462;28;19969;-74
2023/06/16 08:09:28;;;;;;;;;;;;;;;;;;4994720;28;20301;-74
2023/06/16 08:11:55;;;;;;;;;;;;;;;;;;4994904;28;19950;-74
2023/06/16 08:14:22;;;;;;;;;;;;;;;;;;4995137;28;19941;-76
2023/06/16 08:16:50;;;;;;;;;;;;;;;;;;4994878;28;19979;-75
2023/06/16 08:19:16;;;;;;;;;;;;;;;;;;4994699;28;20020;-75
2023/06/16 08:21:43;;;;;;;;;;;;;;;;;;4994146;28;19925;-74
2023/06/16 08:24:10;;;;;;;;;;;;;;;;;;4994427;28;19930;-76
2023/06/16 08:26:37;;;;;;;;;;;;;;;;;;4994469;28;19926;-75
2023/06/16 08:29:04;;;;;;;;;;;;;;;;;;4998319;28;20285;-75
2023/06/16 08:31:32;;;;;;;;;;;;;;;;;;4998402;28;19929;-76
2023/06/16 08:33:59;;;;;;;;;;;;;;;;;;4998062;28;19985;-76
2023/06/16 08:36:26;;;;;;;;;;;;;;;;;;4998370;28;19980;-76
2023/06/16 08:38:53;;;;;;;;;;;;;;;;;;4998260;28;20286;-74
2023/06/16 08:41:20;;;;;;;;;;;;;;;;;;4998332;28;19933;-74
2023/06/16 08:43:47;;;;;;;;;;;;;;;;;;4998230;28;19926;-75
2023/06/16 08:46:14;;;;;;;;;;;;;;;;;;4998219;28;19949;-75
2023/06/16 08:48:40;;;;;;;;;;;;;;;;;;4998467;28;19929;-75
2023/06/16 08:51:09;;;;;;;;;;;;;;;;;;4997703;28;19933;-75
2023/06/16 08:53:36;;;;;;;;;;;;;;;;;;4998007;28;19972;-75
2023/06/16 08:56:03;;;;;;;;;;;;;;;;;;4997843;28;19992;-75
2023/06/16 08:58:30;;;;;;;;;;;;;;;;;;4998864;28;19983;-75
2023/06/16 09:00:57;;;;;;;;;;;;;;;;;;4997959;28;19965;-75
2023/06/16 09:03:25;;;;;;;;;;;;;;;;;;4997496;28;19925;-75
2023/06/16 09:05:52;;;;;;;;;;;;;;;;;;4997697;28;19926;-75
2023/06/16 09:08:19;;;;;;;;;;;;;;;;;;4997732;28;19926;-74
2023/06/16 09:10:46;;;;;;;;;;;;;;;;;;4997306;28;20318;-74
2023/06/16 09:13:13;;;;;;;;;;;;;;;;;;4997554;28;19937;-74
2023/06/16 09:15:41;;;;;;;;;;;;;;;;;;4997513;28;19996;-75
2023/06/16 09:18:08;;;;;;;;;;;;;;;;;;4997560;28;19932;-74
2023/06/16 09:20:35;;;;;;;;;;;;;;;;;;4997638;28;19925;-74
2023/06/16 09:23:04;;;;;;;;;;;;;;;;;;4998015;28;19926;-74
2023/06/16 09:25:31;;;;;;;;;;;;;;;;;;4997114;28;20457;-74
2023/06/16 09:27:59;;;;;;;;;;;;;;;;;;4997503;28;19930;-74
2023/06/16 09:30:29;;;;;;;;;;;;;;;;;;4997376;28;19980;-74
2023/06/16 09:32:56;;;;;;;;;;;;;;;;;;4997023;28;20408;-74
2023/06/16 09:35:23;;;;;;;;;;;;;;;;;;4997196;28;19937;-74
2023/06/16 09:37:50;;;;;;;;;;;;;;;;;;4997217;28;19972;-74
2023/06/16 09:40:16;;;;;;;;;;;;;;;;;;4996161;28;19979;-74
2023/06/16 09:42:43;;;;;;;;;;;;;;;;;;4997091;28;19930;-74
2023/06/16 09:45:10;;;;;;;;;;;;;;;;;;4997059;28;19926;-74
2023/06/16 09:47:37;;;;;;;;;;;;;;;;;;4996780;28;19968;-73
2023/06/16 09:50:04;;;;;;;;;;;;;;;;;;4997075;28;19930;-74
2023/06/16 09:52:31;;;;;;;;;;;;;;;;;;4996971;28;19926;-74
2023/06/16 09:54:58;;;;;;;;;;;;;;;;;;4997129;28;19953;-74
2023/06/16 09:57:25;;;;;;;;;;;;;;;;;;4996615;28;19926;-74
2023/06/16 09:59:52;;;;;;;;;;;;;;;;;;4996596;28;19933;-74
2023/06/16 10:02:18;;;;;;;;;;;;;;;;;;4996849;28;20021;-74
2023/06/16 10:04:45;;;;;;;;;;;;;;;;;;4996834;28;20297;-75
2023/06/16 10:07:12;;;;;;;;;;;;;;;;;;5020741;23;19930;-68
2023/06/16 10:09:39;;;;;;;;;;;;;;;;;;4996527;28;20356;-68
2023/06/16 10:12:07;;;;;;;;;;;;;;;;;;4996681;28;19946;-68
2023/06/16 10:14:34;;;;;;;;;;;;;;;;;;4996692;28;19933;-68
2023/06/16 10:17:01;;;;;;;;;;;;;;;;;;4996495;28;19973;-68
2023/06/16 10:19:28;;;;;;;;;;;;;;;;;;4996186;28;19925;-68
2023/06/16 10:21:55;;;;;;;;;;;;;;;;;;4996587;28;19933;-66
2023/06/16 10:24:22;;;;;;;;;;;;;;;;;;4996007;28;19925;-67
2023/06/16 10:26:48;;;;;;;;;;;;;;;;;;4996321;28;19926;-68
2023/06/16 10:29:16;;;;;;;;;;;;;;;;;;4996435;28;19933;-67
2023/06/16 10:31:43;;;;;;;;;;;;;;;;;;4996501;28;19930;-67
2023/06/16 10:34:10;;;;;;;;;;;;;;;;;;4996365;28;19930;-68
2023/06/16 10:36:38;;;;;;;;;;;;;;;;;;4996613;28;19932;-68
2023/06/16 10:39:05;;;;;;;;;;;;;;;;;;4996181;28;19926;-67
2023/06/16 10:41:33;;;;;;;;;;;;;;;;;;4996241;28;19930;-68
2023/06/16 10:44:00;;;;;;;;;;;;;;;;;;4995966;28;20036;-68
2023/06/16 10:46:27;;;;;;;;;;;;;;;;;;4995813;28;19926;-67
2023/06/16 10:48:53;;;;;;;;;;;;;;;;;;4995884;28;19933;-67
2023/06/16 10:51:22;;;;;;;;;;;;;;;;;;4995353;28;20382;-67
2023/06/16 10:53:49;;;;;;;;;;;;;;;;;;4995766;28;19933;-68
2023/06/16 10:56:17;;;;;;;;;;;;;;;;;;4995781;28;19948;-67
2023/06/16 10:58:44;;;;;;;;;;;;;;;;;;4995676;28;20001;-69
2023/06/16 11:01:11;;;;;;;;;;;;;;;;;;4995624;28;19926;-68
2023/06/16 11:03:38;;;;;;;;;;;;;;;;;;4995433;28;19933;-68
2023/06/16 11:06:05;;;;;;;;;;;;;;;;;;4995150;28;20385;-67
2023/06/16 11:08:32;;;;;;;;;;;;;;;;;;4995078;28;19977;-68
2023/06/16 11:10:59;;;;;;;;;;;;;;;;;;4995066;28;19933;-68
2023/06/16 11:13:26;;;;;;;;;;;;;;;;;;4995335;28;19926;-68
2023/06/16 11:15:53;;;;;;;;;;;;;;;;;;4995412;28;19945;-68
2023/06/16 11:18:20;;;;;;;;;;;;;;;;;;4994900;28;19933;-68
2023/06/16 11:20:46;;;;;;;;;;;;;;;;;;4994875;28;20278;-68
2023/06/16 11:23:13;;;;;;;;;;;;;;;;;;4995073;28;19936;-68
2023/06/16 11:25:40;;;;;;;;;;;;;;;;;;4994755;28;20377;-68
2023/06/16 11:28:07;;;;;;;;;;;;;;;;;;4995802;28;19926;-68
2023/06/16 11:30:35;;;;;;;;;;;;;;;;;;4995073;28;19930;-68
2023/06/16 11:33:02;;;;;;;;;;;;;;;;;;4994807;28;19932;-68
2023/06/16 11:35:29;;;;;;;;;;;;;;;;;;4995056;28;19940;-68
2023/06/16 11:37:56;;;;;;;;;;;;;;;;;;4994987;28;19955;-68
2023/06/16 11:40:23;;;;;;;;;;;;;;;;;;4994932;28;20340;-70
2023/06/16 11:42:51;;;;;;;;;;;;;;;;;;4994737;28;19925;-71
2023/06/16 11:45:18;;;;;;;;;;;;;;;;;;4994591;28;19932;-70
2023/06/16 11:47:44;;;;;;;;;;;;;;;;;;4994708;28;19926;-70
2023/06/16 11:50:11;;;;;;;;;;;;;;;;;;4994379;28;19926;-70
2023/06/16 11:52:38;;;;;;;;;;;;;;;;;;4994760;28;19925;-68
2023/06/16 11:55:05;;;;;;;;;;;;;;;;;;4994623;28;19926;-68
2023/06/16 11:57:32;;;;;;;;;;;;;;;;;;4994371;28;20309;-70
2023/06/16 11:59:59;;;;;;;;;;;;;;;;;;4994731;28;19926;-69
2023/06/16 12:02:26;;;;;;;;;;;;;;;;;;4994112;28;19926;-69
2023/06/16 12:04:53;;;;;;;;;;;;;;;;;;4994625;28;19932;-69
2023/06/16 12:07:20;;;;;;;;;;;;;;;;;;4994330;28;19976;-69
2023/06/16 12:09:47;;;;;;;;;;;;;;;;;;4994760;28;19925;-68
2023/06/16 12:12:15;;;;;;;;;;;;;;;;;;4995223;28;19933;-69
2023/06/16 12:14:42;;;;;;;;;;;;;;;;;;4994847;28;19926;-69
2023/06/16 12:17:08;;;;;;;;;;;;;;;;;;4997547;28;19926;-69
2023/06/16 12:19:36;;;;;;;;;;;;;;;;;;4996753;28;20389;-68
2023/06/16 12:22:04;;;;;;;;;;;;;;;;;;5000349;28;20531;-68
2023/06/16 12:24:31;;;;;;;;;;;;;;;;;;5000440;28;20445;-68
2023/06/16 12:27:00;;;;;;;;;;;;;;;;;;4999670;28;19933;-70
2023/06/16 12:29:27;;;;;;;;;;;;;;;;;;4999774;28;19933;-70
2023/06/16 12:31:54;;;;;;;;;;;;;;;;;;4998850;28;19926;-70
2023/06/16 12:34:21;;;;;;;;;;;;;;;;;;4998299;28;19926;-70
2023/06/16 12:36:48;;;;;;;;;;;;;;;;;;4994938;28;20016;-70
2023/06/16 12:39:16;;;;;;;;;;;;;;;;;;4998092;28;20002;-70
2023/06/16 12:41:43;;;;;;;;;;;;;;;;;;4999742;28;19930;-71
2023/06/16 12:44:10;;;;;;;;;;;;;;;;;;4999196;28;19926;-70
2023/06/16 12:46:37;;;;;;;;;;;;;;;;;;5000394;28;19925;-70
2023/06/16 12:49:04;;;;;;;;;;;;;;;;;;5000314;28;19932;-71
2023/06/16 12:51:33;;;;;;;;;;;;;;;;;;4999945;28;19932;-71
2023/06/16 12:54:00;;;;;;;;;;;;;;;;;;4998666;28;19930;-71
2023/06/16 12:56:27;;;;;;;;;;;;;;;;;;4998599;28;19926;-71
2023/06/16 12:58:54;;;;;;;;;;;;;;;;;;4998902;28;19930;-71
2023/06/16 13:01:21;;;;;;;;;;;;;;;;;;5000186;28;19926;-71
2023/06/16 13:03:49;;;;;;;;;;;;;;;;;;5000147;28;19933;-71
2023/06/16 13:06:18;;;;;;;;;;;;;;;;;;4999272;28;20020;-71
2023/06/16 13:08:46;;;;;;;;;;;;;;;;;;4999415;28;19926;-70
2023/06/16 13:11:13;;;;;;;;;;;;;;;;;;4998745;28;19927;-71
2023/06/16 13:13:41;;;;;;;;;;;;;;;;;;5000175;28;19984;-70
2023/06/16 13:16:08;;;;;;;;;;;;;;;;;;5002083;28;20362;-71
2023/06/16 13:18:35;;;;;;;;;;;;;;;;;;5000832;28;19926;-71
2023/06/16 13:21:02;;;;;;;;;;;;;;;;;;5002629;28;19926;-71
2023/06/16 13:23:29;;;;;;;;;;;;;;;;;;5002290;28;19985;-71
2023/06/16 13:25:56;;;;;;;;;;;;;;;;;;5002373;28;19925;-71
2023/06/16 13:28:23;;;;;;;;;;;;;;;;;;5002001;28;19976;-71
2023/06/16 13:30:51;;;;;;;;;;;;;;;;;;5002975;28;19926;-71
2023/06/16 13:33:18;;;;;;;;;;;;;;;;;;5002067;28;20390;-71
2023/06/16 13:35:45;;;;;;;;;;;;;;;;;;5002175;28;19930;-71
2023/06/16 13:38:12;;;;;;;;;;;;;;;;;;5002639;28;19926;-72
2023/06/16 13:40:39;;;;;;;;;;;;;;;;;;5002619;28;19929;-71
2023/06/16 13:43:06;;;;;;;;;;;;;;;;;;5001028;28;19926;-71
2023/06/16 13:45:33;;;;;;;;;;;;;;;;;;5000593;28;19926;-71
2023/06/16 13:48:00;;;;;;;;;;;;;;;;;;5001486;28;19933;-70
2023/06/16 13:50:27;;;;;;;;;;;;;;;;;;5002696;28;19925;-70
2023/06/16 13:52:55;;;;;;;;;;;;;;;;;;5002624;28;19930;-70
2023/06/16 13:55:22;;;;;;;;;;;;;;;;;;5002846;28;20389;-71
2023/06/16 13:57:50;;;;;;;;;;;;;;;;;;5002060;28;19932;-72
2023/06/16 14:00:17;;;;;;;;;;;;;;;;;;5002116;28;19952;-71
2023/06/16 14:02:44;;;;;;;;;;;;;;;;;;5001919;28;20404;-72
2023/06/16 14:05:11;;;;;;;;;;;;;;;;;;5001992;28;19933;-69
2023/06/16 14:07:38;;;;;;;;;;;;;;;;;;5002440;28;19976;-70
2023/06/16 14:10:08;;;;;;;;;;;;;;;;;;5001752;28;19936;-71
2023/06/16 14:12:35;;;;;;;;;;;;;;;;;;5003463;28;19933;-71
2023/06/16 14:15:02;;;;;;;;;;;;;;;;;;5002049;28;20020;-71
2023/06/16 14:17:29;;;;;;;;;;;;;;;;;;5001520;28;20416;-70
2023/06/16 14:19:56;;;;;;;;;;;;;;;;;;5001717;28;19926;-72
2023/06/16 14:22:23;;;;;;;;;;;;;;;;;;5001963;28;19926;-70
2023/06/16 14:24:50;;;;;;;;;;;;;;;;;;5000789;28;19925;-71
2023/06/16 14:27:17;;;;;;;;;;;;;;;;;;5001423;28;19932;-71
2023/06/16 14:29:44;;;;;;;;;;;;;;;;;;5001390;28;19930;-72
2023/06/16 14:32:11;;;;;;;;;;;;;;;;;;4999129;28;19933;-71
2023/06/16 14:34:38;;;;;;;;;;;;;;;;;;4996871;28;19925;-71
2023/06/16 14:37:05;;;;;;;;;;;;;;;;;;4996620;28;19926;-68
2023/06/16 14:39:32;;;;;;;;;;;;;;;;;;4996098;28;19926;-69
2023/06/16 14:41:59;;;;;;;;;;;;;;;;;;5006270;28;19926;-69
2023/06/16 14:44:26;;;;;;;;;;;;;;;;;;5006554;28;19925;-69
2023/06/16 14:46:53;;;;;;;;;;;;;;;;;;5001524;28;19926;-72
2023/06/16 14:49:20;;;;;;;;;;;;;;;;;;5000516;28;20381;-70
2023/06/16 14:51:47;;;;;;;;;;;;;;;;;;4996159;28;19933;-70
2023/06/16 14:54:14;;;;;;;;;;;;;;;;;;4995961;28;19976;-70
2023/06/16 14:56:40;;;;;;;;;;;;;;;;;;4995709;28;19926;-70
2023/06/16 14:59:07;;;;;;;;;;;;;;;;;;4995830;28;19932;-71
2023/06/16 16:41:09;;;;;;;;;;;23.10;16.80;;;;;;5112188;27;19918;-73
2023/06/16 16:43:36;;;;;;;;;;;22.90;22.10;;;;;;5112035;28;19924;-74
2023/06/16 16:46:02;;;;;;;;;;;22.90;21.30;;;;;;5112105;28;19945;-74
2023/06/16 16:48:29;;;;;;;;;;;23.00;21.40;;;;;;5111860;28;19931;-74
2023/06/16 16:50:55;;;;;;;;;;;23.00;21.40;;;;;;5111863;28;19931;-74
2023/06/16 16:53:22;;;;;;;;;;;22.90;21.60;;;;;;5111801;28;19928;-74
2023/06/16 16:55:48;;;;;;;;;;;22.80;21.70;;;;;;5111819;28;19924;-74
2023/06/16 16:58:16;;;;;;;;;;;22.70;22.30;;;;;;5111754;28;19931;-74
2023/06/16 17:00:43;;;;;;;;;;;22.60;22.60;;;;;;5111413;28;20394;-73
2023/06/16 17:03:09;;;;;;;;;;;22.50;22.30;;;;;;5111292;28;19931;-73
2023/06/16 17:05:36;;;;;;;;;;;22.50;22.60;;;;;;5111597;28;19971;-73
2023/06/16 17:08:03;;;;;;;;;;;22.50;22.30;;;;;;5111602;28;19931;-73
2023/06/16 17:10:29;;;;;;;;;;;22.60;22.00;;;;;;5111318;28;20299;-72
2023/06/16 17:12:56;;;;;;;;;;;22.60;21.90;;;;;;5111538;28;20287;-73
2023/06/16 17:15:23;;;;;;;;;;;22.70;22.20;;;;;;5111219;28;20405;-73
2023/06/16 17:17:50;;;;;;;;;;;22.70;22.00;;;;;;5111235;28;19924;-72
2023/06/16 17:20:17;;;;;;;;;;;22.70;22.20;;;;;;5110879;28;19924;-73
2023/06/16 17:22:43;;;;;;;;;;;22.70;22.20;;;;;;5110994;28;20387;-73
2023/06/16 17:25:10;;;;;;;;;;;22.70;22.40;;;;;;5111506;28;19924;-72
2023/06/16 17:27:36;;;;;;;;;;;22.70;22.60;;;;;;5111302;28;19931;-71
2023/06/16 17:30:03;;;;;;;;;;;22.70;22.30;;;;;;5111465;28;19924;-73
2023/06/16 17:32:31;;;;;;;;;;;22.60;22.10;;;;;;5111246;28;20272;-72
2023/06/16 17:34:57;;;;;;;;;;;22.50;22.40;;;;;;5110779;28;20371;-71
2023/06/16 17:37:24;;;;;;;;;;;22.50;22.80;;;;;;5111045;28;19924;-72
2023/06/16 17:39:52;;;;;;;;;;;22.50;22.80;;;;;;5121024;28;19924;-71
2023/06/16 17:42:18;;;;;;;;;;;22.50;22.90;;;;;;5132831;28;19923;-72
2023/06/16 17:44:45;;;;;;;;;;;22.40;23.00;;;;;;5132329;28;20275;-72
2023/06/16 17:47:11;;;;;;;;;;;22.40;22.90;;;;;;5131809;28;19928;-73
2023/06/16 17:49:39;;;;;;;;;;;22.30;22.90;;;;;;5131714;28;19924;-71
2023/06/16 17:52:06;;;;;;;;;;;22.20;22.80;;;;;;5120143;28;19924;-71
2023/06/16 17:54:33;;;;;;;;;;;22.10;22.80;;;;;;5117806;28;19927;-71
2023/06/16 17:57:00;;;;;;;;;;;22.10;23.20;;;;;;5117689;28;20275;-72
2023/06/16 17:59:26;;;;;;;;;;;22.00;23.10;;;;;;5117402;28;20320;-72
2023/06/16 18:01:53;;;;;;;;;;;21.90;23.80;;;;;;5117851;28;19986;-72
2023/06/16 18:04:19;;;;;;;;;;;21.90;23.40;;;;;;5117790;28;20302;-72
2023/06/16 18:06:47;;;;;;;;;;;21.80;23.60;;;;;;5117442;28;19930;-71
2023/06/16 18:09:14;;;;;;;;;;;21.80;23.70;;;;;;5117805;28;20332;-71
2023/06/16 18:11:41;;;;;;;;;;;21.70;23.80;;;;;;5117168;28;20375;-70
2023/06/16 18:14:07;;;;;;;;;;;21.70;24.10;;;;;;5117467;28;19923;-72
2023/06/16 18:16:34;;;;;;;;;;;21.60;24.30;;;;;;5117404;28;19931;-71
2023/06/16 18:19:00;;;;;;;;;;;21.60;24.70;;;;;;5117428;28;19931;-69
2023/06/16 18:21:27;;;;;;;;;;;21.50;24.60;;;;;;5117078;28;19923;-70
2023/06/16 18:23:55;;;;;;;;;;;21.50;25.30;;;;;;5117319;28;20029;-70
2023/06/16 18:26:21;;;;;;;;;;;21.40;25.90;;;;;;5117060;28;20525;-71
2023/06/16 18:28:48;;;;;;;;;;;21.20;26.80;;;;;;5117134;28;19923;-71
2023/06/16 18:31:15;;;;;;;;;;;21.10;27.40;;;;;;5116818;28;19931;-71
2023/06/16 18:33:41;;;;;;;;;;;20.90;27.40;;;;;;5116863;28;20019;-71
2023/06/16 18:36:08;;;;;;;;;;;20.70;27.90;;;;;;5117557;28;19931;-71
2023/06/16 18:38:35;;;;;;;;;;;20.60;28.10;;;;;;5117868;28;20027;-71
2023/06/16 18:41:03;;;;;;;;;;;20.50;28.60;;;;;;5116790;28;19924;-70
2023/06/16 18:43:29;;;;;;;;;;;20.30;29.10;;;;;;5117601;28;19962;-71
2023/06/16 18:45:56;;;;;;;;;;;20.20;29.80;;;;;;5116780;28;19924;-71
2023/06/16 18:48:22;;;;;;;;;;;20.00;30.20;;;;;;5116521;28;19927;-71
2023/06/16 18:50:49;;;;;;;;;;;19.80;30.80;;;;;;5116425;28;19947;-71
2023/06/16 18:53:16;;;;;;;;;;;19.70;31.70;;;;;;5116877;28;19930;-72
2023/06/16 18:55:43;;;;;;;;;;;19.50;32.00;;;;;;5116132;28;19927;-71
2023/06/16 18:58:11;;;;;;;;;;;19.40;32.70;;;;;;5115961;28;20397;-72
2023/06/16 19:00:37;;;;;;;;;;;19.30;33.40;;;;;;5115526;28;20290;-72
2023/06/16 19:03:04;;;;;;;;;;;19.10;33.90;;;;;;5116157;28;20371;-72
2023/06/16 19:05:31;;;;;;;;;;;19.00;34.50;;;;;;5117208;28;19930;-70
2023/06/16 19:07:58;;;;;;;;;;;18.80;34.90;;;;;;5120094;28;19974;-71
2023/06/16 19:10:25;;;;;;;;;;;18.70;35.40;;;;;;5116182;28;20041;-70
2023/06/16 19:12:52;;;;;;;;;;;18.60;36.10;;;;;;5116021;28;20382;-71
2023/06/16 19:15:22;;;;;;;;;;;18.50;36.50;;;;;;5116049;28;19924;-71
2023/06/16 19:17:48;;;;;;;;;;;18.30;37.10;;;;;;5115494;28;19946;-70
2023/06/16 19:20:15;;;;;;;;;;;18.20;37.60;;;;;;5115587;28;19924;-71
2023/06/16 19:22:42;;;;;;;;;;;18.00;38.10;;;;;;5115474;28;19972;-72
2023/06/16 19:25:10;;;;;;;;;;;17.90;38.80;;;;;;5116041;28;19977;-71
2023/06/16 19:27:36;;;;;;;;;;;17.80;39.50;;;;;;5116041;28;19967;-72
2023/06/16 19:30:03;;;;;;;;;;;17.70;40.40;;;;;;5115516;28;20379;-72
2023/06/16 19:32:31;;;;;;;;;;;17.60;40.50;;;;;;5115685;28;19930;-73
2023/06/16 19:34:58;;;;;;;;;;;17.50;41.60;;;;;;5115757;28;19923;-70
2023/06/16 19:37:25;;;;;;;;;;;17.30;42.80;;;;;;5115594;28;19923;-70
2023/06/16 19:39:51;;;;;;;;;;;17.20;44.10;;;;;;5115008;28;19951;-70
2023/06/16 19:42:18;;;;;;;;;;;17.20;44.80;;;;;;5115411;28;20009;-70
2023/06/16 19:44:44;;;;;;;;;;;17.10;45.70;;;;;;5115416;28;19931;-70
2023/06/16 19:47:11;;;;;;;;;;;16.90;47.00;;;;;;5115519;28;19931;-70
2023/06/16 19:49:39;;;;;;;;;;;16.90;48.60;;;;;;5115361;28;20010;-72
2023/06/16 19:52:06;;;;;;;;;;;16.80;49.80;;;;;;5115262;28;20374;-72
2023/06/16 19:54:33;;;;;;;;;;;16.70;50.90;;;;;;5115472;28;19965;-72
2023/06/16 19:56:59;;;;;;;;;;;16.60;52.70;;;;;;5115640;28;19923;-72
2023/06/16 19:59:26;;;;;;;;;;;16.50;52.60;;;;;;5116083;28;19928;-73
2023/06/16 20:01:53;;;;;;;;;;;16.40;53.40;;;;;;5115723;28;19924;-71
2023/06/16 20:04:19;;;;;;;;;;;16.30;53.70;;;;;;5115328;28;19924;-68
2023/06/16 20:06:49;;;;;;;;;;;16.20;54.40;;;;;;5115492;28;19924;-68
2023/06/16 20:09:15;;;;;;;;;;;16.10;55.20;;;;;;5114959;28;20019;-69
2023/06/16 20:11:42;;;;;;;;;;;16.00;56.10;;;;;;5114680;28;19930;-67
2023/06/16 20:14:08;;;;;;;;;;;16.00;57.00;;;;;;5115024;28;19924;-68
2023/06/16 20:16:35;;;;;;;;;;;16.00;57.90;;;;;;5115032;28;19946;-68
2023/06/16 20:19:03;;;;;;;;;;;15.90;58.40;;;;;;5114595;28;20352;-68
2023/06/16 20:21:29;;;;;;;;;;;15.80;59.00;;;;;;5114493;28;19976;-68
2023/06/16 20:23:57;;;;;;;;;;;15.80;60.40;;;;;;5115284;28;19950;-68
2023/06/16 20:26:24;;;;;;;;;;;15.70;62.40;;;;;;5115241;28;19935;-68
2023/06/16 20:28:50;;;;;;;;;;;15.60;64.30;;;;;;5115458;28;19923;-67
2023/06/16 20:31:17;;;;;;;;;;;15.60;65.40;;;;;;5115679;28;19931;-71
2023/06/16 20:33:43;;;;;;;;;;;15.50;66.10;;;;;;5115275;28;19934;-70
2023/06/16 20:36:10;;;;;;;;;;;15.40;67.40;;;;;;5115145;28;19928;-70
2023/06/16 20:38:38;;;;;;;;;;;15.40;68.70;;;;;;5114772;28;19928;-70
2023/06/16 20:41:05;;;;;;;;;;;15.30;69.20;;;;;;5114133;28;19993;-70
2023/06/16 20:43:32;;;;;;;;;;;15.30;70.50;;;;;;5114993;28;19924;-70
2023/06/16 20:45:59;;;;;;;;;;;15.20;72.80;;;;;;5115169;28;19931;-70
2023/06/16 20:48:26;;;;;;;;;;;15.10;74.30;;;;;;5114521;28;19928;-70
2023/06/16 20:50:55;;;;;;;;;;;15.00;75.40;;;;;;5115383;28;19924;-70
2023/06/16 20:53:21;;;;;;;;;;;15.00;77.60;;;;;;5114309;28;20310;-70
2023/06/16 20:55:48;;;;;;;;;;;14.90;80.00;;;;;;5114520;28;19923;-70
2023/06/16 20:58:16;;;;;;;;;;;14.90;81.30;;;;;;5114618;28;19928;-70
2023/06/16 21:00:43;;;;;;;;;;;14.80;82.90;;;;;;5114401;28;19993;-70
2023/06/16 21:03:10;;;;;;;;;;;14.70;84.90;;;;;;5114284;28;20383;-70
2023/06/16 21:05:37;;;;;;;;;;;14.70;87.10;;;;;;5114244;28;20382;-70
2023/06/16 21:08:04;;;;;;;;;;;14.60;87.80;;;;;;5114487;28;19924;-70
2023/06/16 21:10:35;;;;;;;;;;;14.60;89.70;;;;;;5114365;28;20393;-70
2023/06/16 21:13:01;;;;;;;;;;;14.50;90.50;;;;;;5114578;28;19924;-70
2023/06/16 21:15:30;;;;;;;;;;;14.50;91.20;;;;;;5114032;28;20387;-70
2023/06/16 21:17:59;;;;;;;;;;;14.40;91.80;;;;;;5114210;28;19928;-70
2023/06/16 21:20:26;;;;;;;;;;;14.40;92.60;;;;;;5113851;28;19924;-70
2023/06/16 21:22:52;;;;;;;;;;;14.30;93.60;;;;;;5113735;28;19924;-70
2023/06/16 21:25:19;;;;;;;;;;;14.30;94.00;;;;;;5113911;28;20318;-70
2023/06/16 21:27:45;;;;;;;;;;;14.20;94.50;;;;;;5117451;28;19924;-70